Terminal Aerodrome Forecast
Issued by NWS

Home | Current Version | Previous Version | Text Only | Print | Product List | Glossary On
Versions: 1 2 3 4 5 6 7 8 9 10 11 12 13 14 15 16 17 18
000
FTUS44 KCRP 251741
TAFALI
TAF
KALI 251741Z 2518/2618 08006KT P6SM VCTS SCT025 BKN040CB
      TEMPO 2518/2522 VRB15G25KT 4SM TSRA BKN025CB
     FM260000 09012KT P6SM SCT040 BKN150
     FM260300 11006KT P6SM SCT020 BKN250
     FM261000 04005KT P6SM BKN020 BKN120
     FM261500 09009KT P6SM VCSH BKN025 BKN040=

USA.gov is the U.S. government's official web portal to all federal, state and local government web resources and services.